Spriggs Payne Airport

Jump to: basic info | weather | frequencies | runways | comments

Related pages: nearby airports | nearby navaids | notams | map

Basic information (top)

Codes: MLW GLMR
Location: lon 6.289060, lat -10.758700, elev 25 ft / 8 m msl
Status: medium_airport
Scheduled airline service: yes
Links: Wikipedia Mobile

Weather (top)

Current conditions for Roberts International Airport 24nm (44km) E (rec'd 2015/04/21 20:30Z):

GLRB 212030Z 00000KT 9999 TS FEW015 FEW025CB 28/26 Q1011 RMK CB-NE/E TEMPO TS

Airport forecast for Roberts International Airport 24nm (44km) E (rec'd 2015/04/21 12:51Z):

TAF GLRB 211000Z 2112/2218 23008KT 9999 SCT018 BKN260 
     FM211300 22010KT 9999 SCT020 
      TEMPO 2120/2200 08004KT 9999 TS SCT013 FEW024CB

Frequencies (top)

Verify before use: may be inaccurate or out of date.

APP: 124.5 MHz (ROBERTS APP)
TWR: 118.7 MHz (SPRIGGS TWR)

Runways (top)

05/23: 6,000 x 100 ft (1,829 x 30 m) — paved — lighted — threshold 05 displaced 200 ft (61 m) — threshold 23 displaced 200 ft (61 m)

Latest comments (top)

No comments yet for Spriggs Payne Airport

More... (top)

See also NOTAMs and nearby airports and navaids, or visit the Spriggs Payne Airport page at the main OurAirports website..